Terminal Aerodrome Forecast
Issued by NWS

Home | Current Version | Previous Version | Text Only | Print | Product List | Glossary On
Versions: 1 2 3 4 5 6 7 8 9 10 11 12 13 14 15 16 17 18 19 20 21 22 23 24 25 26 27 28 29 30 31 32 33 34 35 36
000
FTUS46 KOTX 131735
TAFMWH
TAF
KMWH 131735Z 1318/1418 24008KT P6SM SCT120 BKN200
     FM132300 21008KT P6SM VCSH SCT040 OVC100
     FM140100 20007KT P6SM -RA BKN040 OVC080
     FM140700 18010KT P6SM BKN080 BKN200
     FM141400 19006KT P6SM SCT010 BKN100=

USA.gov is the U.S. government's official web portal to all federal, state and local government web resources and services.